createdAt,value
2023-01-06T00:07:12.687Z,13.50
2023-01-06T00:15:22.067Z,13.30
2023-01-06T00:23:27.498Z,13.30
2023-01-06T00:31:35.415Z,13.10
2023-01-06T00:39:40.702Z,13.00
2023-01-06T00:47:48.656Z,13.00
2023-01-06T00:55:54.946Z,12.90
2023-01-06T01:04:03.263Z,12.90
2023-01-06T01:12:15.295Z,12.60
2023-01-06T01:20:23.456Z,12.60
2023-01-06T01:28:30.993Z,12.70
2023-01-06T01:36:38.975Z,12.60
2023-01-06T01:45:00.278Z,12.40
2023-01-06T01:53:12.138Z,12.30
2023-01-06T02:01:17.695Z,12.50
2023-01-06T02:09:30.695Z,12.50
2023-01-06T02:17:54.399Z,12.60
2023-01-06T02:26:43.982Z,12.70
2023-01-06T02:35:04.818Z,12.60
2023-01-06T02:43:18.353Z,12.20
2023-01-06T02:51:34.661Z,12.10
2023-01-06T02:59:44.604Z,12.30
2023-01-06T03:07:53.973Z,12.20
2023-01-06T03:15:59.850Z,12.20
2023-01-06T03:24:08.515Z,12.20
2023-01-06T03:32:21.297Z,12.20
2023-01-06T03:40:36.893Z,12.20
2023-01-06T03:48:56.639Z,12.00
2023-01-06T03:57:09.949Z,12.00
2023-01-06T04:05:18.185Z,12.00
2023-01-06T04:13:27.050Z,11.90
2023-01-06T04:21:34.777Z,12.00
2023-01-06T04:29:43.257Z,12.20
2023-01-06T04:37:48.897Z,12.30
2023-01-06T04:45:56.958Z,12.50
2023-01-06T04:54:02.437Z,12.30
2023-01-06T05:02:10.422Z,12.60
2023-01-06T05:10:15.788Z,12.50
2023-01-06T05:18:23.869Z,12.60
2023-01-06T05:26:30.804Z,12.40
2023-01-06T05:34:39.367Z,12.50
2023-01-06T05:42:45.155Z,12.50
2023-01-06T05:50:54.314Z,12.60
2023-01-06T05:58:59.679Z,12.70
2023-01-06T06:07:07.657Z,12.70
2023-01-06T06:15:13.473Z,12.80
2023-01-06T06:23:21.826Z,12.90
2023-01-06T06:31:30.160Z,13.00
2023-01-06T06:39:40.893Z,13.00
2023-01-06T06:47:46.285Z,12.90
2023-01-06T06:55:54.248Z,12.80
2023-01-06T07:03:59.815Z,12.90
2023-01-06T07:12:08.759Z,12.80
2023-01-06T07:20:14.708Z,13.10
2023-01-06T07:28:22.727Z,13.30
2023-01-06T07:36:28.093Z,13.80
2023-01-06T07:44:36.121Z,14.30
2023-01-06T07:52:44.624Z,14.50
2023-01-06T08:00:53.285Z,14.40
2023-01-06T08:08:58.736Z,14.60
2023-01-06T08:17:07.013Z,14.70
2023-01-06T08:25:14.028Z,17.20
2023-01-06T08:33:24.281Z,16.50
2023-01-06T08:41:29.901Z,15.40
2023-01-06T08:49:38.066Z,14.60
2023-01-06T08:57:47.459Z,14.10
2023-01-06T09:06:00.450Z,13.80
2023-01-06T09:14:06.463Z,13.40
2023-01-06T09:22:15.488Z,13.30
2023-01-06T09:30:21.399Z,13.10
2023-01-06T09:38:30.459Z,12.80
2023-01-06T09:46:39.907Z,12.50
2023-01-06T09:54:55.189Z,12.80
2023-01-06T10:03:01.324Z,13.10
2023-01-06T10:11:29.046Z,12.70
2023-01-06T10:19:44.206Z,13.90
2023-01-06T10:27:56.324Z,16.60
2023-01-06T10:36:03.079Z,15.20
2023-01-06T10:52:59.497Z,13.50
2023-01-06T11:01:15.853Z,13.60
2023-01-06T11:09:32.923Z,13.00
2023-01-06T11:17:40.980Z,12.70
2023-01-06T11:25:46.651Z,13.20
2023-01-06T11:34:02.009Z,13.20
2023-01-06T11:42:14.133Z,13.00
2023-01-06T11:50:27.399Z,13.00
2023-01-06T11:59:03.761Z,12.80
2023-01-06T12:07:21.440Z,12.60
2023-01-06T12:15:30.611Z,12.90
2023-01-06T12:23:43.350Z,13.30
2023-01-06T12:31:57.704Z,13.20
2023-01-06T12:40:17.069Z,13.30
2023-01-06T12:48:29.894Z,14.00
2023-01-06T12:57:07.175Z,14.00
2023-01-06T13:05:39.620Z,13.70
2023-01-06T13:14:03.609Z,13.40
2023-01-06T13:22:13.360Z,13.60
2023-01-06T13:30:49.974Z,13.80
2023-01-06T13:39:01.496Z,14.00
2023-01-06T13:47:12.728Z,13.40
2023-01-06T13:55:31.540Z,13.30
2023-01-06T14:03:40.435Z,13.10
2023-01-06T14:11:46.311Z,13.40
2023-01-06T14:19:57.886Z,12.90
2023-01-06T14:28:29.225Z,13.00
2023-01-06T14:36:38.898Z,13.10
2023-01-06T14:44:49.718Z,13.10
2023-01-06T14:53:01.324Z,13.10
2023-01-06T15:01:09.405Z,13.10
2023-01-06T15:09:22.833Z,13.10
2023-01-06T15:17:29.001Z,12.90
2023-01-06T15:25:40.825Z,12.80
2023-01-06T15:33:47.670Z,12.80
2023-01-06T15:41:57.554Z,13.00
2023-01-06T15:50:05.242Z,12.90
2023-01-06T15:58:20.147Z,12.80
2023-01-06T16:06:30.460Z,13.00
2023-01-06T16:14:43.808Z,13.20
2023-01-06T16:22:53.768Z,12.90
2023-01-06T16:31:13.488Z,13.10
2023-01-06T16:39:19.081Z,13.00
2023-01-06T16:47:27.139Z,13.10
2023-01-06T16:55:33.060Z,13.00
2023-01-06T17:03:41.983Z,13.00
2023-01-06T17:11:47.967Z,13.00
2023-01-06T17:19:56.312Z,12.70
2023-01-06T17:28:01.673Z,12.70
2023-01-06T17:36:25.860Z,12.40
2023-01-06T17:44:38.610Z,12.30
2023-01-06T17:53:07.215Z,12.30
2023-01-06T18:01:19.898Z,12.30
2023-01-06T18:09:29.167Z,12.10
2023-01-06T18:17:40.315Z,12.00
2023-01-06T18:25:48.992Z,11.70
2023-01-06T18:33:54.801Z,11.70
2023-01-06T18:42:21.894Z,11.70
2023-01-06T18:50:31.153Z,11.80
2023-01-06T18:58:50.204Z,11.40
2023-01-06T19:06:58.056Z,11.50
2023-01-06T19:15:21.732Z,11.40
2023-01-06T19:23:34.158Z,11.20
2023-01-06T19:31:56.287Z,11.30
2023-01-06T19:40:02.015Z,11.30
2023-01-06T19:48:20.184Z,11.00
2023-01-06T19:56:31.909Z,10.70
2023-01-06T20:04:43.212Z,9.90
2023-01-06T20:12:50.005Z,10.10
2023-01-06T20:21:02.807Z,10.10
2023-01-06T20:29:11.857Z,10.20
2023-01-06T20:37:20.036Z,10.10
2023-01-06T20:45:29.785Z,10.00
2023-01-06T20:53:38.450Z,10.00
2023-01-06T21:01:46.278Z,9.80
2023-01-06T21:18:34.657Z,9.90
2023-01-06T21:26:40.251Z,9.90
2023-01-06T21:45:00.724Z,9.80
2023-01-06T21:53:37.777Z,9.70
2023-01-06T22:11:32.007Z,9.90
2023-01-06T22:20:29.683Z,9.20
2023-01-06T22:28:40.531Z,9.10
2023-01-06T22:46:03.751Z,9.10
2023-01-06T22:54:22.969Z,9.10
2023-01-06T23:02:42.215Z,9.00
2023-01-06T23:10:49.346Z,8.80
2023-01-06T23:19:00.026Z,8.90
2023-01-06T23:27:09.562Z,8.50
2023-01-06T23:35:25.267Z,8.50
2023-01-06T23:43:30.811Z,8.50
2023-01-06T23:51:39.181Z,8.10
2023-01-06T23:59:44.846Z,8.20
